createdAt,value
2023-04-09T00:01:11.751Z,100139.04
2023-04-09T00:06:14.576Z,100135.08
2023-04-09T00:11:17.412Z,100136.42
2023-04-09T00:16:20.289Z,100139.70
2023-04-09T00:21:23.146Z,100140.20
2023-04-09T00:26:26.057Z,100142.14
2023-04-09T00:31:28.886Z,100137.86
2023-04-09T00:36:31.702Z,100131.25
2023-04-09T00:41:34.504Z,100124.94
2023-04-09T00:46:37.343Z,100125.96
2023-04-09T00:51:41.106Z,100125.42
2023-04-09T00:56:43.997Z,100124.76
2023-04-09T01:01:46.811Z,100127.51
2023-04-09T01:07:02.613Z,100121.82
2023-04-09T01:12:38.106Z,100122.75
2023-04-09T01:17:50.637Z,100119.14
2023-04-09T01:23:06.299Z,100125.58
2023-04-09T01:28:19.236Z,100129.96
2023-04-09T01:33:22.835Z,100131.47
2023-04-09T01:38:26.557Z,100130.05
2023-04-09T01:43:30.724Z,100133.09
2023-04-09T01:48:34.506Z,100131.90
2023-04-09T01:53:37.340Z,100129.77
2023-04-09T01:58:40.988Z,100135.86
2023-04-09T02:03:51.926Z,100141.14
2023-04-09T02:08:58.463Z,100142.66
2023-04-09T02:14:01.630Z,100142.64
2023-04-09T02:19:04.476Z,100140.27
2023-04-09T02:24:07.643Z,100134.16
2023-04-09T02:29:10.474Z,100135.52
2023-04-09T02:34:13.268Z,100131.63
2023-04-09T02:39:16.143Z,100131.80
2023-04-09T02:44:19.102Z,100129.73
2023-04-09T02:49:21.894Z,100126.98
2023-04-09T02:54:24.727Z,100130.12
2023-04-09T02:59:27.580Z,100129.02
2023-04-09T03:04:30.458Z,100131.77
2023-04-09T03:09:33.314Z,100125.89
2023-04-09T03:14:36.173Z,100128.49
2023-04-09T03:19:38.969Z,100128.33
2023-04-09T03:24:41.763Z,100127.27
2023-04-09T03:29:44.585Z,100129.18
2023-04-09T03:34:47.374Z,100127.46
2023-04-09T03:39:50.162Z,100121.83
2023-04-09T03:44:56.091Z,100115.73
2023-04-09T03:49:58.886Z,100123.98
2023-04-09T03:55:03.670Z,100124.66
2023-04-09T04:00:07.341Z,100123.78
2023-04-09T04:05:11.687Z,100123.55
2023-04-09T04:10:14.558Z,100123.52
2023-04-09T04:15:17.629Z,100115.01
2023-04-09T04:20:20.615Z,100119.55
2023-04-09T04:25:23.859Z,100123.48
2023-04-09T04:30:26.666Z,100128.17
2023-04-09T04:35:29.497Z,100133.77
2023-04-09T04:40:32.317Z,100143.00
2023-04-09T04:45:35.271Z,100149.89
2023-04-09T04:50:38.158Z,100148.92
2023-04-09T04:55:41.085Z,100149.95
2023-04-09T05:00:43.995Z,100149.61
2023-04-09T05:05:46.886Z,100146.60
2023-04-09T05:10:49.728Z,100145.10
2023-04-09T05:15:52.764Z,100149.01
2023-04-09T05:20:55.538Z,100146.67
2023-04-09T05:25:58.353Z,100145.56
2023-04-09T05:31:01.727Z,100142.86
2023-04-09T05:36:05.527Z,100153.00
2023-04-09T05:41:08.261Z,100155.20
2023-04-09T05:46:11.246Z,100151.64
2023-04-09T05:51:15.583Z,100149.79
2023-04-09T05:56:18.421Z,100147.55
2023-04-09T06:01:21.509Z,100155.30
2023-04-09T06:06:24.291Z,100157.23
2023-04-09T06:11:27.151Z,100157.34
2023-04-09T06:16:29.935Z,100155.08
2023-04-09T06:21:33.324Z,100163.80
2023-04-09T06:26:36.602Z,100175.98
2023-04-09T06:31:39.568Z,100181.05
2023-04-09T06:36:43.961Z,100189.28
2023-04-09T06:41:47.554Z,100194.80
2023-04-09T06:46:51.062Z,100196.13
2023-04-09T06:51:53.931Z,100204.80
2023-04-09T06:56:56.845Z,100206.96
2023-04-09T07:02:01.158Z,100211.61
2023-04-09T07:07:04.094Z,100214.11
2023-04-09T07:12:06.911Z,100215.34
2023-04-09T07:17:09.854Z,100213.85
2023-04-09T07:22:12.650Z,100216.20
2023-04-09T07:27:15.677Z,100216.22
2023-04-09T07:32:18.748Z,100210.48
2023-04-09T07:37:23.127Z,100216.04
2023-04-09T07:42:27.381Z,100216.18
2023-04-09T07:47:30.551Z,100213.30
2023-04-09T07:52:33.436Z,100220.63
2023-04-09T07:57:37.013Z,100217.08
2023-04-09T08:02:40.114Z,100221.31
2023-04-09T08:07:43.149Z,100213.54
2023-04-09T08:12:49.006Z,100216.33
2023-04-09T08:17:51.803Z,100219.71
2023-04-09T08:22:54.773Z,100215.89
2023-04-09T08:27:58.442Z,100212.29
2023-04-09T08:33:02.156Z,100215.77
2023-04-09T08:38:05.053Z,100214.08
2023-04-09T08:43:10.555Z,100219.83
2023-04-09T08:48:14.375Z,100216.06
2023-04-09T08:53:19.411Z,100219.39
2023-04-09T08:58:22.207Z,100212.41
2023-04-09T09:03:25.152Z,100213.64
2023-04-09T09:08:28.070Z,100218.92
2023-04-09T09:13:30.964Z,100222.52
2023-04-09T09:18:43.021Z,100227.34
2023-04-09T09:23:48.333Z,100225.73
2023-04-09T09:28:52.519Z,100226.64
2023-04-09T09:33:55.646Z,100230.53
2023-04-09T09:39:03.679Z,100227.33
2023-04-09T09:44:08.078Z,100231.91
2023-04-09T09:49:11.285Z,100227.77
2023-04-09T09:54:18.987Z,100227.20
2023-04-09T09:59:30.420Z,100229.55
2023-04-09T10:04:36.855Z,100224.50
2023-04-09T10:09:43.357Z,100219.70
2023-04-09T10:14:46.702Z,100217.65
2023-04-09T10:20:11.169Z,100215.23
2023-04-09T10:25:15.030Z,100209.95
2023-04-09T10:30:38.324Z,100210.89
2023-04-09T10:35:42.336Z,100201.35
2023-04-09T10:40:51.606Z,100200.45
2023-04-09T10:45:57.826Z,100199.95
2023-04-09T10:51:06.662Z,100188.99
2023-04-09T10:56:17.103Z,100189.61
2023-04-09T11:01:24.225Z,100187.98
2023-04-09T11:06:28.275Z,100190.37
2023-04-09T11:11:31.144Z,100185.89
2023-04-09T11:16:34.072Z,100184.40
2023-04-09T11:21:37.378Z,100183.68
2023-04-09T11:26:40.438Z,100182.00
2023-04-09T11:31:46.404Z,100181.23
2023-04-09T11:36:49.989Z,100186.93
2023-04-09T11:41:52.732Z,100182.41
2023-04-09T11:46:55.942Z,100185.73
2023-04-09T11:52:01.162Z,100186.61
2023-04-09T11:57:04.530Z,100186.41
2023-04-09T12:02:10.441Z,100186.26
2023-04-09T12:07:14.281Z,100179.31
2023-04-09T12:12:20.821Z,100176.91
2023-04-09T12:17:23.655Z,100178.83
2023-04-09T12:22:26.730Z,100177.80
2023-04-09T12:27:30.807Z,100171.46
2023-04-09T12:32:35.402Z,100169.90
2023-04-09T12:37:38.337Z,100169.80
2023-04-09T12:42:45.546Z,100167.45
2023-04-09T12:47:49.076Z,100165.44
2023-04-09T12:52:51.983Z,100165.36
2023-04-09T12:57:54.898Z,100163.03
2023-04-09T13:02:57.857Z,100162.75
2023-04-09T13:08:01.078Z,100162.62
2023-04-09T13:13:03.931Z,100161.39
2023-04-09T13:18:06.835Z,100158.00
2023-04-09T13:23:09.707Z,100158.02
2023-04-09T13:28:12.859Z,100156.39
2023-04-09T13:33:16.799Z,100150.25
2023-04-09T13:38:19.706Z,100149.28
2023-04-09T13:43:27.911Z,100146.23
2023-04-09T13:48:30.701Z,100139.94
2023-04-09T13:53:33.503Z,100145.88
2023-04-09T13:58:36.587Z,100143.20
2023-04-09T14:03:43.363Z,100142.61
2023-04-09T14:08:46.687Z,100136.84
2023-04-09T14:13:49.784Z,100133.92
2023-04-09T14:18:53.279Z,100127.01
2023-04-09T14:23:56.467Z,100123.61
2023-04-09T14:28:59.422Z,100118.11
2023-04-09T14:34:03.572Z,100119.23
2023-04-09T14:39:06.521Z,100115.73
2023-04-09T14:44:09.418Z,100111.79
2023-04-09T14:49:12.530Z,100107.71
2023-04-09T14:54:15.547Z,100104.23
2023-04-09T14:59:18.361Z,100109.61
2023-04-09T15:04:21.560Z,100109.13
2023-04-09T15:09:24.819Z,100112.19
2023-04-09T15:14:31.357Z,100108.91
2023-04-09T15:19:34.194Z,100109.77
2023-04-09T15:24:37.037Z,100119.41
2023-04-09T15:29:39.846Z,100119.00
2023-04-09T15:34:42.760Z,100118.69
2023-04-09T15:39:45.908Z,100118.04
2023-04-09T15:44:50.541Z,100118.88
2023-04-09T15:49:53.408Z,100119.65
2023-04-09T15:54:56.559Z,100118.03
2023-04-09T15:59:59.375Z,100109.42
2023-04-09T16:05:02.230Z,100109.98
2023-04-09T16:10:06.064Z,100108.03
2023-04-09T16:15:10.097Z,100114.94
2023-04-09T16:20:13.046Z,100110.73
2023-04-09T16:25:15.887Z,100106.83
2023-04-09T16:30:18.717Z,100103.48
2023-04-09T16:35:21.572Z,100104.54
2023-04-09T16:40:24.522Z,100102.47
2023-04-09T16:45:27.922Z,100105.14
2023-04-09T16:50:30.735Z,100106.02
2023-04-09T16:55:34.680Z,100110.09
2023-04-09T17:00:37.974Z,100113.55
2023-04-09T17:05:40.971Z,100121.70
2023-04-09T17:10:44.669Z,100133.38
2023-04-09T17:15:47.602Z,100134.91
2023-04-09T17:20:51.048Z,100137.77
2023-04-09T17:25:53.973Z,100142.39
2023-04-09T17:30:56.818Z,100144.46
2023-04-09T17:36:00.599Z,100160.95
2023-04-09T17:41:04.750Z,100166.68
2023-04-09T17:46:09.716Z,100170.55
2023-04-09T17:51:19.923Z,100180.05
2023-04-09T17:56:22.836Z,100185.86
2023-04-09T18:01:25.909Z,100190.85
2023-04-09T18:06:29.259Z,100192.95
2023-04-09T18:11:32.133Z,100196.12
2023-04-09T18:16:38.835Z,100195.88
2023-04-09T18:21:41.693Z,100198.70
2023-04-09T18:26:44.509Z,100198.85
2023-04-09T18:31:47.455Z,100200.38
2023-04-09T18:36:54.532Z,100199.05
2023-04-09T18:41:57.616Z,100201.32
2023-04-09T18:47:01.946Z,100202.73
2023-04-09T18:52:09.299Z,100201.19
2023-04-09T18:57:12.242Z,100204.87
2023-04-09T19:02:15.172Z,100209.20
2023-04-09T19:07:19.787Z,100210.80
2023-04-09T19:12:27.442Z,100208.83
2023-04-09T19:17:30.323Z,100209.83
2023-04-09T19:22:33.188Z,100210.33
2023-04-09T19:27:36.008Z,100211.58
2023-04-09T19:32:39.899Z,100213.39
2023-04-09T19:37:42.767Z,100215.13
2023-04-09T19:42:45.674Z,100212.42
2023-04-09T19:47:55.592Z,100209.37
2023-04-09T19:52:58.812Z,100207.21
2023-04-09T19:58:02.571Z,100209.70
2023-04-09T20:03:07.066Z,100215.63
2023-04-09T20:08:13.546Z,100214.56
2023-04-09T20:13:20.111Z,100215.42
2023-04-09T20:18:23.184Z,100216.38
2023-04-09T20:23:26.034Z,100213.45
2023-04-09T20:28:29.709Z,100213.26
2023-04-09T20:33:32.581Z,100208.58
2023-04-09T20:38:35.428Z,100205.95
2023-04-09T20:43:40.577Z,100202.52
2023-04-09T20:48:43.668Z,100204.40
2023-04-09T20:53:46.583Z,100197.30
2023-04-09T20:58:52.541Z,100194.95
2023-04-09T21:03:55.915Z,100185.60
2023-04-09T21:08:59.892Z,100187.16
2023-04-09T21:14:04.089Z,100186.83
2023-04-09T21:19:09.986Z,100182.92
2023-04-09T21:24:16.318Z,100184.83
2023-04-09T21:29:21.296Z,100182.33
2023-04-09T21:34:24.197Z,100182.47
2023-04-09T21:39:27.364Z,100186.80
2023-04-09T21:44:30.326Z,100182.55
2023-04-09T21:49:34.282Z,100184.34
2023-04-09T21:54:37.139Z,100185.91
2023-04-09T21:59:41.332Z,100184.94
2023-04-09T22:04:44.481Z,100185.01
2023-04-09T22:09:47.468Z,100184.92
2023-04-09T22:14:50.419Z,100186.50
2023-04-09T22:19:53.253Z,100185.11
2023-04-09T22:24:56.048Z,100178.23
2023-04-09T22:29:59.238Z,100176.10
2023-04-09T22:35:02.063Z,100173.17
2023-04-09T22:40:09.989Z,100175.08
2023-04-09T22:45:13.034Z,100176.57
2023-04-09T22:50:15.918Z,100180.09
2023-04-09T22:55:18.861Z,100182.52
2023-04-09T23:00:22.118Z,100181.43
2023-04-09T23:05:24.960Z,100185.23
2023-04-09T23:10:27.986Z,100189.89
2023-04-09T23:15:30.999Z,100191.27
2023-04-09T23:20:34.913Z,100193.36
2023-04-09T23:25:38.404Z,100188.26
2023-04-09T23:30:41.505Z,100190.11
2023-04-09T23:35:44.375Z,100190.48
2023-04-09T23:40:49.032Z,100188.96
2023-04-09T23:45:51.899Z,100186.73
2023-04-09T23:50:54.685Z,100184.34
2023-04-09T23:55:57.505Z,100184.29
